Time;durP1;ratioP1;P1;durP2;ratioP2;P2;SDS_P1;SDS_P2;PMS_P1;PMS_P2;Temp;Humidity;BMP_temperature;BMP_pressure;BME280_temperature;BME280_humidity;BME280_pressure;Samples;Min_cycle;Max_cycle;Signal;HPM_P1;HPM_P2
2021/11/22 00:02:46;;;;;;;45.15;27.22;;;;;;;7.72;77.03;99979.90;2198748;80;34100;-65
2021/11/22 00:05:47;;;;;;;40.08;25.77;;;;;;;7.72;77.08;99977.23;2229560;79;29352;-65
2021/11/22 00:08:49;;;;;;;45.83;27.48;;;;;;;7.72;77.11;99978.12;2198782;81;27717;-68
2021/11/22 00:11:53;;;;;;;48.85;28.83;;;;;;;7.73;77.12;99982.52;2223652;79;29919;-64
2021/11/22 00:14:55;;;;;;;44.83;28.05;;;;;;;7.72;77.09;99982.56;2220152;80;31312;-63
2021/11/22 00:17:57;;;;;;;44.73;26.55;;;;;;;7.72;77.11;99983.90;2218944;80;32770;-67
2021/11/22 00:20:59;;;;;;;41.50;27.02;;;;;;;7.72;77.15;99990.56;2219043;80;29495;-65
2021/11/22 00:24:01;;;;;;;51.05;26.95;;;;;;;7.72;77.20;99990.56;2219426;79;27609;-64
2021/11/22 00:27:03;;;;;;;45.70;28.70;;;;;;;7.72;77.19;99995.45;2220139;80;29604;-69
2021/11/22 00:30:07;;;;;;;42.80;24.52;;;;;;;7.72;77.21;99990.56;2220081;80;31422;-68
2021/11/22 00:33:10;;;;;;;40.00;24.20;;;;;;;7.72;77.24;99999.89;2220306;80;33707;-63
2021/11/22 00:36:12;;;;;;;42.70;24.35;;;;;;;7.70;77.23;100014.64;2220176;80;30112;-65
2021/11/22 00:39:14;;;;;;;45.80;24.77;;;;;;;7.69;77.25;100017.38;2220247;80;27636;-64
2021/11/22 00:42:17;;;;;;;41.73;24.43;;;;;;;7.69;77.21;100013.38;2219700;79;29706;-63
2021/11/22 00:45:20;;;;;;;50.17;26.65;;;;;;;7.68;77.25;100016.50;2223999;80;32427;-62
2021/11/22 00:48:22;;;;;;;47.58;25.48;;;;;;;7.67;77.26;100016.58;2220193;80;33761;-64
2021/11/22 00:51:24;;;;;;;46.58;26.75;;;;;;;7.67;77.33;100016.09;2223642;80;30501;-63
2021/11/22 00:54:26;;;;;;;45.55;26.12;;;;;;;7.67;77.34;100013.91;2220393;80;27672;-63
2021/11/22 00:57:27;;;;;;;50.23;28.17;;;;;;;7.67;77.38;100021.42;2220362;80;29793;-64
2021/11/22 01:00:29;;;;;;;55.38;28.25;;;;;;;7.65;77.35;100022.44;2219810;80;32425;-65
2021/11/22 01:03:33;;;;;;;47.10;28.60;;;;;;;7.67;77.43;100021.91;2218960;79;33318;-63
2021/11/22 01:06:34;;;;;;;46.08;27.25;;;;;;;7.66;77.38;100027.69;2220899;80;30129;-62
2021/11/22 01:09:36;;;;;;;44.15;25.17;;;;;;;7.66;77.43;100025.51;2220495;79;27720;-65
2021/11/22 01:12:38;;;;;;;44.33;25.55;;;;;;;7.66;77.41;100030.36;2229215;79;29143;-63
2021/11/22 01:15:40;;;;;;;41.90;26.23;;;;;;;7.65;77.47;100033.09;2232772;79;31442;-70
2021/11/22 01:18:41;;;;;;;44.23;25.80;;;;;;;7.64;77.47;100039.36;2202833;80;34409;-64
2021/11/22 01:21:43;;;;;;;43.73;25.32;;;;;;;7.62;77.53;100036.73;2234087;79;29712;-64
2021/11/22 01:24:45;;;;;;;44.67;25.50;;;;;;;7.64;77.51;100042.88;2234220;79;27579;-66
2021/11/22 01:27:48;;;;;;;40.05;23.80;;;;;;;7.64;77.51;100048.21;2233565;79;29236;-62
2021/11/22 01:30:49;;;;;;;37.15;22.80;;;;;;;7.64;77.56;100048.21;2233573;79;30983;-70
2021/11/22 01:33:52;;;;;;;33.33;21.45;;;;;;;7.63;77.56;100058.47;2233487;79;34181;-67
2021/11/22 01:36:55;;;;;;;34.55;21.45;;;;;;;7.63;77.54;100055.80;2233493;79;30202;-71
2021/11/22 01:39:57;;;;;;;35.90;21.45;;;;;;;7.63;77.54;100053.63;2233696;79;27602;-63
2021/11/22 01:42:59;;;;;;;38.02;20.60;;;;;;;7.62;77.57;100051.89;2202538;80;30038;-64
2021/11/22 01:46:01;;;;;;;38.60;20.80;;;;;;;7.63;77.61;100059.80;2233979;79;31042;-64
2021/11/22 01:49:03;;;;;;;36.68;21.23;;;;;;;7.60;77.55;100062.62;2232516;79;34201;-64
2021/11/22 01:52:06;;;;;;;32.83;19.70;;;;;;;7.60;77.57;100062.62;2233671;79;29345;-64
2021/11/22 01:55:13;;;;;;;30.48;18.35;;;;;;;7.60;77.66;100063.95;2231810;79;27747;-64
2021/11/22 01:58:15;;;;;;;26.93;18.23;;;;;;;7.59;77.59;100073.73;2202396;80;29327;-72
2021/11/22 02:01:17;;;;;;;33.05;19.32;;;;;;;7.59;77.59;100069.73;2233724;79;31871;-65
2021/11/22 02:04:19;;;;;;;32.25;19.70;;;;;;;7.58;77.59;100065.81;2233519;79;33142;-67
2021/11/22 02:07:20;;;;;;;38.83;20.40;;;;;;;7.58;77.62;100063.15;2233390;79;30505;-70
2021/11/22 02:10:23;;;;;;;37.30;20.08;;;;;;;7.55;77.55;100068.13;2234097;79;27730;-71
2021/11/22 02:13:25;;;;;;;36.58;19.90;;;;;;;7.56;77.57;100070.34;2220154;79;28650;-63
2021/11/22 02:16:27;;;;;;;35.55;20.17;;;;;;;7.55;77.62;100067.27;2219693;80;31285;-72
2021/11/22 02:19:29;;;;;;;38.83;19.92;;;;;;;7.54;77.58;100061.53;2218874;80;33841;-73
2021/11/22 02:22:32;;;;;;;33.08;18.55;;;;;;;7.51;77.60;100062.98;2219952;80;30695;-73
2021/11/22 02:25:37;;;;;;;30.62;19.50;;;;;;;7.52;77.60;100076.27;2220485;80;27577;-74
2021/11/22 02:28:39;;;;;;;33.73;19.15;;;;;;;7.50;77.59;100074.13;2220082;80;29903;-70
2021/11/22 02:31:41;;;;;;;28.45;18.55;;;;;;;7.49;77.63;100080.38;2220131;80;31408;-73
2021/11/22 02:34:43;;;;;;;26.12;16.42;;;;;;;7.49;77.62;100091.05;2219616;78;34287;-72
2021/11/22 02:37:45;;;;;;;23.47;15.40;;;;;;;7.47;77.61;100099.56;2218989;80;30534;-70
2021/11/22 02:40:48;;;;;;;24.92;15.90;;;;;;;7.47;77.65;100112.01;2220096;80;27964;-73
2021/11/22 02:43:50;;;;;;;26.82;14.85;;;;;;;7.44;77.64;100097.02;2219842;79;29041;-73
2021/11/22 02:46:52;;;;;;;24.82;15.20;;;;;;;7.42;77.63;100100.20;2219363;80;31351;-73
2021/11/22 02:49:54;;;;;;;28.62;15.58;;;;;;;7.41;77.60;100102.46;2219720;80;33409;-72
2021/11/22 02:52:56;;;;;;;21.17;15.05;;;;;;;7.39;77.59;100110.98;2220059;80;29774;-73
2021/11/22 02:56:03;;;;;;;21.07;14.10;;;;;;;7.36;77.62;100110.64;2219854;79;27902;-73
2021/11/22 02:59:07;;;;;;;22.32;13.53;;;;;;;7.36;77.75;100115.98;2220106;80;28634;-72
2021/11/22 03:02:12;;;;;;;20.27;14.28;;;;;;;7.36;77.74;100113.79;2219778;78;31487;-73
2021/11/22 03:05:14;;;;;;;22.17;14.83;;;;;;;7.36;77.84;100127.97;2220235;80;32989;-71
2021/11/22 03:08:16;;;;;;;22.93;14.03;;;;;;;7.35;77.77;100125.37;2220226;80;29481;-71
2021/11/22 03:11:18;;;;;;;25.15;14.53;;;;;;;7.35;77.74;100127.56;2221519;79;27595;-74
2021/11/22 03:14:20;;;;;;;23.62;15.43;;;;;;;7.35;77.78;100130.70;2233625;79;29259;-74
2021/11/22 03:17:22;;;;;;;25.88;16.15;;;;;;;7.34;77.83;100123.64;2233390;79;31064;-74
2021/11/22 03:20:24;;;;;;;24.98;16.70;;;;;;;7.32;77.83;100131.67;2233767;79;32541;-74
2021/11/22 03:23:27;;;;;;;32.75;19.10;;;;;;;7.32;77.86;100137.00;2233300;79;31472;-74
2021/11/22 03:26:29;;;;;;;31.00;18.10;;;;;;;7.32;77.92;100141.00;2233357;79;27722;-73
2021/11/22 03:29:31;;;;;;;32.50;19.30;;;;;;;7.32;77.97;100142.81;2201248;80;29142;-70
2021/11/22 03:32:33;;;;;;;30.95;18.98;;;;;;;7.32;78.01;100136.15;2233569;79;32203;-74
2021/11/22 03:35:35;;;;;;;35.08;20.02;;;;;;;7.31;78.01;100144.59;2233196;79;33362;-64
2021/11/22 03:38:37;;;;;;;31.73;18.85;;;;;;;7.30;78.00;100145.07;2232952;79;30639;-64
2021/11/22 03:41:39;;;;;;;30.85;18.98;;;;;;;7.29;78.02;100149.99;2233750;79;27523;-69
2021/11/22 03:44:41;;;;;;;31.82;17.40;;;;;;;7.28;78.07;100148.25;2202791;80;29066;-74
2021/11/22 03:47:43;;;;;;;29.80;18.90;;;;;;;7.28;78.12;100150.06;2233474;79;31321;-65
2021/11/22 03:50:44;;;;;;;30.95;18.60;;;;;;;7.27;78.15;100145.19;2233205;79;33494;-66
2021/11/22 03:53:47;;;;;;;28.62;16.60;;;;;;;7.26;78.10;100150.11;2236664;79;29545;-66
2021/11/22 03:56:48;;;;;;;28.73;17.30;;;;;;;7.25;78.07;100148.84;2226104;80;27627;-63
2021/11/22 03:59:50;;;;;;;24.80;16.35;;;;;;;7.23;78.06;100154.69;2226128;80;30011;-70
2021/11/22 04:02:52;;;;;;;25.37;15.50;;;;;;;7.21;78.06;100158.73;2216531;80;31601;-63
2021/11/22 04:05:54;;;;;;;28.25;16.15;;;;;;;7.19;78.07;100155.73;2232058;79;34278;-64
2021/11/22 04:08:55;;;;;;;20.88;14.05;;;;;;;7.15;78.00;100158.98;2232900;79;30407;-68
2021/11/22 04:11:57;;;;;;;24.10;15.88;;;;;;;7.13;78.06;100168.34;2232913;79;27629;-64
2021/11/22 04:14:59;;;;;;;25.88;16.27;;;;;;;7.11;78.06;100161.34;2197467;81;29567;-66
2021/11/22 04:18:01;;;;;;;26.23;16.25;;;;;;;7.09;78.12;100160.53;2229364;79;31070;-62
2021/11/22 04:21:02;;;;;;;25.23;16.90;;;;;;;7.08;78.17;100175.66;2198525;81;32362;-70
2021/11/22 04:24:05;;;;;;;31.02;19.70;;;;;;;7.07;78.17;100185.91;2229185;79;29313;-65
2021/11/22 04:27:10;;;;;;;37.98;21.80;;;;;;;7.05;78.20;100182.42;2198774;81;27623;-68
2021/11/22 04:30:12;;;;;;;35.70;19.52;;;;;;;7.03;78.21;100182.94;2229031;79;29922;-63
2021/11/22 04:33:15;;;;;;;39.45;21.62;;;;;;;7.02;78.24;100182.53;2198486;81;32250;-62
2021/11/22 04:36:17;;;;;;;35.00;20.05;;;;;;;6.97;78.23;100186.70;2229363;79;33050;-64
2021/11/22 04:39:19;;;;;;;30.68;20.40;;;;;;;6.97;78.35;100197.80;2198045;80;30566;-63
2021/11/22 04:42:21;;;;;;;29.27;18.02;;;;;;;6.94;78.34;100193.47;2228127;79;27704;-68
2021/11/22 04:45:29;;;;;;;32.13;19.60;;;;;;;6.94;78.37;100196.61;2197985;81;30085;-67
2021/11/22 04:48:30;;;;;;;29.48;18.45;;;;;;;6.93;78.40;100201.53;2228869;79;31093;-65
2021/11/22 04:51:35;;;;;;;26.30;15.63;;;;;;;6.92;78.42;100203.78;2197479;81;34131;-67
2021/11/22 04:54:38;;;;;;;35.00;21.50;;;;;;;6.91;78.50;100210.03;2229161;79;29720;-67
2021/11/22 04:57:42;;;;;;;31.87;21.52;;;;;;;6.89;78.45;100214.06;2198689;80;28167;-73
2021/11/22 05:00:43;;;;;;;30.32;19.80;;;;;;;6.88;78.46;100216.80;2229079;79;28749;-72
2021/11/22 05:03:48;;;;;;;33.05;19.65;;;;;;;6.87;78.47;100221.70;2197663;81;31045;-72
2021/11/22 05:06:49;;;;;;;30.05;19.50;;;;;;;6.87;78.51;100223.04;2198675;79;33385;-73
2021/11/22 05:09:50;;;;;;;28.23;18.80;;;;;;;6.85;78.53;100228.43;2228882;79;29156;-72
2021/11/22 05:12:52;;;;;;;29.50;18.20;;;;;;;6.86;78.51;100237.28;2199187;80;27706;-71
2021/11/22 05:15:54;;;;;;;31.20;19.65;;;;;;;6.83;78.49;100235.12;2195451;81;29861;-66
2021/11/22 05:18:56;;;;;;;30.43;20.48;;;;;;;6.83;78.52;100246.25;2195669;81;31400;-73
2021/11/22 05:22:00;;;;;;;30.32;19.07;;;;;;;6.81;78.47;100252.94;2195766;81;34188;-70
2021/11/22 05:25:03;;;;;;;29.57;20.37;;;;;;;6.79;78.48;100245.47;2195636;81;30261;-72
2021/11/22 05:28:07;;;;;;;33.63;19.57;;;;;;;6.78;78.52;100248.20;2195553;81;27799;-73
2021/11/22 05:31:08;;;;;;;33.70;19.48;;;;;;;6.77;78.57;100254.44;2194914;81;29929;-71
2021/11/22 05:34:10;;;;;;;31.25;19.40;;;;;;;6.77;78.65;100259.77;2195525;81;31420;-73
2021/11/22 05:37:14;;;;;;;33.42;20.60;;;;;;;6.77;78.68;100265.09;2194979;81;34193;-70
2021/11/22 05:40:16;;;;;;;35.17;21.10;;;;;;;6.77;78.69;100273.97;2196238;81;29335;-68
2021/11/22 05:43:17;;;;;;;35.00;21.97;;;;;;;6.77;78.70;100281.95;2195583;81;27683;-70
2021/11/22 05:46:19;;;;;;;43.17;24.87;;;;;;;6.76;78.70;100284.20;2195288;81;29635;-67
2021/11/22 05:49:21;;;;;;;44.00;26.82;;;;;;;6.74;78.65;100288.70;2195943;81;31424;-70
2021/11/22 05:52:24;;;;;;;44.38;27.60;;;;;;;6.73;78.63;100288.30;2195105;81;34180;-69
2021/11/22 05:55:37;;;;;;;43.48;26.95;;;;;;;6.71;78.60;100294.58;2195549;81;30251;-69
2021/11/22 05:58:36;;;;;;;42.75;25.27;;;;;;;6.67;78.61;100293.81;2193355;81;27516;-71
2021/11/22 06:01:38;;;;;;;46.98;26.20;;;;;;;6.64;78.66;100303.23;2195770;81;28823;-69
2021/11/22 06:04:39;;;;;;;48.45;27.40;;;;;;;6.65;78.79;100305.86;2157834;82;32283;-68
2021/11/22 06:07:41;;;;;;;44.13;26.52;;;;;;;6.67;78.89;100313.78;2163166;82;32723;-72
2021/11/22 06:10:43;;;;;;;45.98;27.37;;;;;;;6.68;78.96;100309.75;2164207;82;29367;-73
2021/11/22 06:13:45;;;;;;;50.23;27.32;;;;;;;6.69;79.02;100314.16;2161796;82;27792;-73
2021/11/22 06:16:46;;;;;;;51.45;28.02;;;;;;;6.71;79.07;100315.42;2160475;82;28708;-73
2021/11/22 06:19:48;;;;;;;52.58;27.65;;;;;;;6.73;79.07;100321.58;2160156;82;32284;-73
2021/11/22 06:22:50;;;;;;;46.92;25.95;;;;;;;6.74;79.00;100335.74;2160234;82;33361;-72
2021/11/22 06:25:52;;;;;;;45.95;24.80;;;;;;;6.74;78.99;100334.41;2160446;82;30413;-70
2021/11/22 06:28:53;;;;;;;53.42;28.40;;;;;;;6.75;79.05;100341.48;2160401;82;27849;-72
2021/11/22 06:31:55;;;;;;;45.80;27.27;;;;;;;6.77;79.08;100344.97;2160487;82;29839;-74
2021/11/22 06:34:58;;;;;;;55.85;34.95;;;;;;;6.79;79.12;100357.77;2160445;82;32113;-74
2021/11/22 06:38:01;;;;;;;60.85;37.63;;;;;;;6.79;79.05;100370.61;2160263;82;34129;-73
2021/11/22 06:41:03;;;;;;;45.55;26.12;;;;;;;6.81;79.08;100377.23;2160380;82;29340;-74
2021/11/22 06:44:04;;;;;;;50.95;27.15;;;;;;;6.80;78.96;100383.00;2159931;82;28244;-72
2021/11/22 06:47:06;;;;;;;50.58;26.25;;;;;;;6.82;78.96;100384.30;2179168;81;29676;-73
2021/11/22 06:50:09;;;;;;;59.60;31.20;;;;;;;6.83;78.91;100382.91;2197292;81;31083;-71
2021/11/22 06:53:13;;;;;;;79.62;46.85;;;;;;;6.85;78.93;100390.87;2228461;79;32699;-72
2021/11/22 06:56:15;;;;;;;66.77;37.67;;;;;;;6.88;78.89;100392.55;2198312;80;30599;-72
2021/11/22 06:59:17;;;;;;;65.87;36.53;;;;;;;6.92;78.99;100399.52;2229204;79;27636;-72
2021/11/22 07:02:19;;;;;;;57.58;33.33;;;;;;;6.94;78.94;100391.02;2198320;80;29098;-72
2021/11/22 07:05:25;;;;;;;54.03;29.12;;;;;;;6.98;78.93;100395.30;2229315;79;32207;-71
2021/11/22 07:08:27;;;;;;;47.45;27.98;;;;;;;7.01;78.94;100403.67;2198755;81;33861;-73
2021/11/22 07:11:28;;;;;;;54.45;28.95;;;;;;;7.04;78.92;100402.22;2228392;79;29409;-69
2021/11/22 07:14:32;;;;;;;48.45;28.23;;;;;;;7.08;79.04;100405.20;2200684;80;27757;-73
2021/11/22 07:17:34;;;;;;;58.85;30.88;;;;;;;7.14;79.05;100412.99;2195409;81;29527;-72
2021/11/22 07:20:36;;;;;;;51.65;30.23;;;;;;;7.19;79.00;100420.83;2195903;81;31055;-71
2021/11/22 07:23:40;;;;;;;54.25;30.65;;;;;;;7.22;78.99;100421.58;2195649;81;33137;-69
2021/11/22 07:26:42;;;;;;;52.62;28.60;;;;;;;7.27;78.90;100430.30;2196119;81;29649;-63
2021/11/22 07:29:45;;;;;;;59.00;29.80;;;;;;;7.29;78.81;100427.13;2196182;81;27654;-67
2021/11/22 07:32:54;;;;;;;56.70;29.10;;;;;;;7.35;78.85;100430.04;2196288;81;29487;-73
2021/11/22 07:35:56;;;;;;;64.40;35.17;;;;;;;7.48;79.03;100439.83;2195171;81;31455;-72
2021/11/22 07:38:58;;;;;;;64.82;35.73;;;;;;;7.58;78.94;100441.71;2195731;81;34158;-72
2021/11/22 07:42:00;;;;;;;61.15;34.92;;;;;;;7.61;78.66;100448.27;2195874;81;29401;-69
2021/11/22 07:45:01;;;;;;;53.95;31.70;;;;;;;7.65;78.59;100444.55;2196679;81;27967;-75
2021/11/22 07:48:04;;;;;;;62.03;30.90;;;;;;;7.71;78.61;100447.02;2195897;81;29534;-73
2021/11/22 07:51:06;;;;;;;45.55;29.87;;;;;;;7.73;78.37;100446.95;2195719;81;31151;-70
2021/11/22 07:54:08;;;;;;;45.10;27.62;;;;;;;7.71;78.25;100451.02;2195746;81;33985;-72
2021/11/22 07:57:10;;;;;;;43.50;24.23;;;;;;;7.72;78.16;100450.53;2195517;81;30136;-70
2021/11/22 08:00:14;;;;;;;50.38;27.02;;;;;;;7.71;78.01;100460.34;2196015;81;27694;-70
2021/11/22 08:03:15;;;;;;;46.10;27.77;;;;;;;7.70;78.01;100467.94;2195757;81;28662;-65
2021/11/22 08:06:18;;;;;;;47.88;27.32;;;;;;;7.69;77.99;100469.34;2195027;81;32198;-62
2021/11/22 08:09:27;;;;;;;45.95;26.95;;;;;;;7.69;77.96;100478.19;2194596;81;34141;-66
2021/11/22 08:12:28;;;;;;;47.43;27.58;;;;;;;7.69;77.79;100476.00;2195283;81;29352;-65
2021/11/22 08:15:33;;;;;;;41.08;26.07;;;;;;;7.65;77.64;100476.55;2185761;81;27801;-65
2021/11/22 08:18:37;;;;;;;34.45;18.15;;;;;;;7.63;77.60;100485.54;2198881;80;28217;-66
2021/11/22 08:21:39;;;;;;;43.45;26.15;;;;;;;7.63;77.57;100488.20;2228318;79;31135;-64
2021/11/22 08:24:41;;;;;;;40.15;24.55;;;;;;;7.59;77.36;100492.30;2198772;81;34073;-65
2021/11/22 08:27:43;;;;;;;46.63;27.87;;;;;;;7.60;77.46;100494.52;2229350;79;29715;-63
2021/11/22 08:30:45;;;;;;;42.83;26.30;;;;;;;7.61;77.39;100496.27;2198800;81;27719;-67
2021/11/22 08:33:47;;;;;;;42.98;25.08;;;;;;;7.62;77.29;100505.13;2229060;79;30066;-64
2021/11/22 08:36:49;;;;;;;43.90;25.82;;;;;;;7.65;77.29;100509.02;2198490;81;32399;-67
2021/11/22 08:39:50;;;;;;;44.38;27.60;;;;;;;7.66;77.13;100511.63;2229140;79;33951;-65
2021/11/22 08:42:54;;;;;;;44.00;27.40;;;;;;;7.69;77.10;100518.20;2198389;81;30758;-67
2021/11/22 08:45:56;;;;;;;45.55;26.80;;;;;;;7.72;77.05;100523.88;2228301;79;27725;-65
2021/11/22 08:48:58;;;;;;;49.30;27.93;;;;;;;7.78;76.93;100523.67;2197770;81;30055;-69
2021/11/22 08:52:00;;;;;;;47.83;26.97;;;;;;;7.79;76.76;100523.20;2229034;79;32356;-71
2021/11/22 08:55:05;;;;;;;48.20;28.50;;;;;;;7.86;76.94;100528.74;2198507;80;33086;-68
2021/11/22 08:58:07;;;;;;;;;;;;;;;7.94;76.94;100533.36;2232976;79;29305;-70
2021/11/22 09:01:09;;;;;;;47.55;28.57;;;;;;;8.01;76.70;100534.02;2158977;82;27692;-71
2021/11/22 09:04:10;;;;;;;48.58;28.10;;;;;;;8.03;76.74;100541.48;2229351;79;28485;-70
2021/11/22 09:07:12;;;;;;;46.70;27.82;;;;;;;8.11;76.86;100542.09;2198762;80;31561;-70
2021/11/22 09:10:15;;;;;;;41.35;26.90;;;;;;;8.14;76.39;100545.10;2229069;79;34133;-67
2021/11/22 09:13:17;;;;;;;46.80;26.87;;;;;;;8.10;76.26;100552.83;2198890;80;29070;-70
2021/11/22 09:16:26;;;;;;;44.23;26.33;;;;;;;8.12;76.48;100554.52;2196225;81;27632;-71
2021/11/22 09:19:24;;;;;;;43.30;27.70;;;;;;;8.12;76.33;100562.52;2194549;81;29579;-70
2021/11/22 09:22:26;;;;;;;45.58;26.62;;;;;;;8.12;76.43;100558.52;2195993;81;31081;-66
2021/11/22 09:25:29;;;;;;;44.95;27.22;;;;;;;8.12;76.27;100561.18;2196086;81;33341;-71
2021/11/22 09:28:33;;;;;;;42.50;24.25;;;;;;;8.10;76.14;100563.50;2196033;81;30185;-71
2021/11/22 09:31:35;;;;;;;35.10;22.35;;;;;;;8.09;76.04;100571.95;2195650;79;27651;-69
2021/11/22 09:34:37;;;;;;;30.55;20.08;;;;;;;8.03;75.96;100570.82;2196024;81;29877;-69
2021/11/22 09:37:39;;;;;;;31.33;20.43;;;;;;;8.04;76.09;100567.23;2195559;81;32280;-69
2021/11/22 09:40:42;;;;;;;32.50;21.15;;;;;;;8.02;75.87;100571.30;2194912;81;34360;-63
2021/11/22 09:43:47;;;;;;;32.55;20.75;;;;;;;8.02;75.98;100571.78;2194700;81;29869;-70
2021/11/22 09:46:52;;;;;;;33.08;21.90;;;;;;;8.09;76.04;100567.95;2196340;81;27643;-68
2021/11/22 09:49:54;;;;;;;36.30;22.85;;;;;;;8.13;75.79;100573.59;2195230;81;32393;-71
2021/11/22 09:52:58;;;;;;;41.90;23.70;;;;;;;8.15;75.82;100576.20;2195187;81;31414;-68
2021/11/22 09:56:00;;;;;;;46.75;26.15;;;;;;;8.15;75.72;100579.76;2195329;81;33756;-71
2021/11/22 09:59:02;;;;;;;39.27;25.48;;;;;;;8.14;75.67;100583.80;2195763;81;30519;-70
2021/11/22 10:02:04;;;;;;;33.80;21.95;;;;;;;8.12;75.94;100593.20;2195846;81;27830;-69
2021/11/22 10:05:30;;;;;;;34.65;21.48;;;;;;;8.14;75.92;100590.47;2195657;81;30025;-72
2021/11/22 10:08:42;;;;;;;30.95;20.62;;;;;;;8.16;75.77;100586.84;2196095;81;31017;-72
2021/11/22 10:11:55;;;;;;;32.13;19.30;;;;;;;8.20;75.85;100593.79;2195822;81;33053;-69
2021/11/22 10:15:01;;;;;;;32.10;20.40;;;;;;;8.23;75.65;100590.61;2170934;81;29401;-73
2021/11/22 10:18:08;;;;;;;34.45;20.97;;;;;;;8.22;75.62;100588.42;2161615;82;27640;-72
2021/11/22 10:21:14;;;;;;;32.73;21.75;;;;;;;8.23;75.39;100587.94;2159335;82;28596;-67
2021/11/22 10:24:16;;;;;;;30.97;19.12;;;;;;;8.23;75.18;100588.83;2161424;81;31033;-69
2021/11/22 10:27:38;;;;;;;34.55;20.68;;;;;;;8.18;74.90;100595.67;2161155;82;34162;-67
2021/11/22 10:30:51;;;;;;;33.00;21.00;;;;;;;8.16;75.08;100596.18;2162323;82;29330;-63
2021/11/22 10:34:00;;;;;;;38.53;22.30;;;;;;;8.07;74.81;100593.81;2162272;82;28230;-72
2021/11/22 10:37:07;;;;;;;41.55;24.27;;;;;;;8.02;74.75;100601.98;2162024;82;30052;-72
2021/11/22 10:40:17;;;;;;;44.63;25.43;;;;;;;8.02;75.07;100601.12;2162159;82;33133;-75
2021/11/22 10:43:20;;;;;;;45.28;24.37;;;;;;;7.99;74.80;100605.23;2162415;82;33751;-73
2021/11/22 10:46:34;;;;;;;45.73;27.13;;;;;;;7.89;74.34;100606.86;2162343;82;29193;-69
2021/11/22 10:49:52;;;;;;;42.33;24.52;;;;;;;7.79;74.44;100609.43;2162395;82;27696;-73
2021/11/22 10:52:50;;;;;;;36.70;22.80;;;;;;;7.74;74.50;100608.70;2161527;82;29098;-75
2021/11/22 10:55:52;;;;;;;37.08;22.32;;;;;;;7.70;74.72;100613.27;2162338;82;31865;-72
2021/11/22 10:59:09;;;;;;;41.73;22.82;;;;;;;7.70;74.70;100616.38;2161937;82;34187;-72
2021/11/22 11:02:11;;;;;;;36.60;21.70;;;;;;;7.76;74.93;100612.19;2162382;82;30144;-72
2021/11/22 11:05:34;;;;;;;40.40;22.85;;;;;;;7.80;74.83;100618.29;2162448;82;27678;-74
2021/11/22 11:08:36;;;;;;;36.23;22.22;;;;;;;7.87;74.97;100615.84;2162022;82;28706;-73
2021/11/22 11:11:39;;;;;;;34.78;20.37;;;;;;;7.96;75.05;100617.33;2162159;82;31917;-73
2021/11/22 11:14:45;;;;;;;37.65;20.35;;;;;;;7.98;74.82;100621.68;2172298;80;34311;-71
2021/11/22 11:17:47;;;;;;;33.42;20.40;;;;;;;7.94;74.46;100627.18;2229005;79;30186;-73
2021/11/22 11:20:50;;;;;;;35.00;19.30;;;;;;;7.92;74.64;100624.58;2199308;81;27600;-78
2021/11/22 11:23:53;;;;;;;37.88;21.33;;;;;;;7.87;74.44;100631.38;2229138;79;29598;-71
2021/11/22 11:26:55;;;;;;;34.70;21.55;;;;;;;7.84;74.47;100632.83;2198659;81;31915;-72
2021/11/22 11:29:58;;;;;;;45.00;26.17;;;;;;;7.81;74.43;100625.37;2229069;79;34263;-72
2021/11/22 11:33:03;;;;;;;37.70;25.43;;;;;;;7.81;74.33;100629.37;2199057;81;29349;-67
2021/11/22 11:36:29;;;;;;;41.08;25.20;;;;;;;7.84;74.66;100627.50;2228658;79;28285;-65
2021/11/22 11:39:52;;;;;;;45.05;27.25;;;;;;;7.89;74.43;100624.19;2197765;80;30120;-66
2021/11/22 11:43:19;;;;;;;49.85;28.00;;;;;;;8.00;74.53;100630.51;2187973;81;32092;-61
2021/11/22 11:46:58;;;;;;;43.33;25.85;;;;;;;8.12;74.74;100627.00;2165456;81;34149;-72
2021/11/22 11:50:25;;;;;;;46.25;28.05;;;;;;;8.21;74.39;100626.70;2188671;81;30524;-75
2021/11/22 11:53:27;;;;;;;47.83;28.25;;;;;;;8.28;74.29;100627.36;2189176;81;27750;-75
2021/11/22 11:56:44;;;;;;;48.78;27.65;;;;;;;8.26;74.14;100630.09;2188833;81;29865;-66
2021/11/22 11:59:46;;;;;;;43.98;28.05;;;;;;;8.24;74.08;100628.38;2188110;81;32422;-68
2021/11/22 12:03:03;;;;;;;49.42;29.10;;;;;;;8.16;73.83;100636.66;2188770;81;33068;-62
2021/11/22 12:06:06;;;;;;;51.20;29.80;;;;;;;8.08;74.03;100635.58;2188677;81;30201;-63
2021/11/22 12:12:18;;;;;;;46.90;28.53;;;;;;;8.01;74.30;100632.25;2256158;78;31378;-63
2021/11/22 12:15:27;;;;;;;49.27;28.83;;;;;;;7.90;74.31;100646.42;2197057;80;27633;-62
2021/11/22 12:18:32;;;;;;;48.20;28.62;;;;;;;7.83;74.37;100650.20;2180239;81;29920;-65
2021/11/22 12:21:39;;;;;;;47.73;29.65;;;;;;;7.74;74.56;100653.59;2181544;81;30226;-69
2021/11/22 12:24:44;;;;;;;38.02;24.30;;;;;;;7.70;74.66;100660.38;2152620;81;33036;-63
2021/11/22 12:27:45;;;;;;;;;;;;;;;7.58;74.35;100664.33;2184309;81;28565;-65
2021/11/22 12:31:08;;;;;;;36.55;22.15;;;;;;;7.48;74.54;100671.74;2181482;81;27630;-65
2021/11/22 12:34:13;;;;;;;31.68;21.65;;;;;;;7.44;74.69;100670.08;2181494;81;28668;-63
2021/11/22 12:37:27;;;;;;;28.98;18.95;;;;;;;7.45;74.98;100675.83;2181617;81;31034;-70
2021/11/22 12:40:31;;;;;;;37.98;20.20;;;;;;;7.46;74.65;100676.25;2180956;81;34247;-70
2021/11/22 12:43:44;;;;;;;29.98;18.90;;;;;;;7.48;74.78;100680.18;2147412;81;28728;-70
2021/11/22 12:46:55;;;;;;;33.40;20.95;;;;;;;7.48;74.63;100678.85;2181460;81;27537;-70
2021/11/22 12:50:14;;;;;;;38.88;23.95;;;;;;;7.43;74.53;100685.22;2139016;83;29552;-69
2021/11/22 12:53:17;;;;;;;37.58;25.75;;;;;;;7.32;74.63;100693.98;2102567;84;32240;-69
2021/11/22 12:56:19;;;;;;;42.60;26.33;;;;;;;7.22;74.61;100701.84;2107486;83;34209;-71
2021/11/22 12:59:26;;;;;;;39.85;27.15;;;;;;;7.13;74.86;100706.50;2101580;83;28823;-67
2021/11/22 13:02:48;;;;;;;39.40;25.72;;;;;;;7.06;75.01;100710.28;2121260;83;28229;-68
2021/11/22 13:05:55;;;;;;;34.20;23.07;;;;;;;6.97;74.97;100716.73;2121190;83;29897;-67
2021/11/22 13:08:57;;;;;;;34.70;23.15;;;;;;;6.87;74.75;100719.70;2114762;83;32871;-69
2021/11/22 13:12:01;;;;;;;36.38;23.75;;;;;;;6.83;75.03;100720.25;2106402;84;32978;-69
2021/11/22 13:15:15;;;;;;;26.15;17.98;;;;;;;6.86;75.33;100727.27;2105051;84;29967;-63
2021/11/22 13:18:17;;;;;;;30.48;17.62;;;;;;;6.80;74.75;100726.98;2105689;83;27630;-68
2021/11/22 13:21:27;;;;;;;27.45;17.12;;;;;;;6.77;74.73;100726.62;2104874;84;29560;-68
2021/11/22 13:24:32;;;;;;;29.07;17.55;;;;;;;6.69;74.47;100731.26;2199741;80;31863;-69
2021/11/22 13:27:34;;;;;;;30.70;18.62;;;;;;;6.66;74.73;100731.33;2181119;80;33911;-61
2021/11/22 13:30:37;;;;;;;25.05;17.73;;;;;;;6.64;74.62;100730.05;2169865;82;30065;-62
2021/11/22 13:33:40;;;;;;;23.95;17.50;;;;;;;6.58;74.60;100730.20;2170768;81;27653;-68
2021/11/22 13:36:47;;;;;;;24.40;17.77;;;;;;;6.57;74.65;100735.11;2170884;82;30129;-68
2021/11/22 13:39:49;;;;;;;25.45;16.55;;;;;;;6.56;74.75;100744.00;2171103;82;31068;-69
2021/11/22 13:42:56;;;;;;;27.02;18.15;;;;;;;6.54;74.55;100742.73;2171036;81;34095;-69
2021/11/22 13:46:03;;;;;;;26.80;18.77;;;;;;;6.50;74.56;100749.03;2169053;82;28789;-70
2021/11/22 13:49:07;;;;;;;32.13;20.72;;;;;;;6.48;74.75;100756.18;2170158;82;27688;-69
2021/11/22 13:52:28;;;;;;;24.17;16.17;;;;;;;6.50;75.01;100762.81;2171243;82;28639;-63
2021/11/22 13:55:34;;;;;;;28.92;20.82;;;;;;;6.53;75.04;100768.92;2124139;82;31326;-70
2021/11/22 13:58:41;;;;;;;27.80;20.40;;;;;;;6.54;74.96;100772.01;2136740;83;34323;-69
2021/11/22 14:01:46;;;;;;;28.42;21.17;;;;;;;6.54;74.75;100775.11;2135023;83;28789;-70
2021/11/22 14:04:51;;;;;;;29.30;21.30;;;;;;;6.54;74.72;100781.33;2135099;83;28150;-69
2021/11/22 14:07:58;;;;;;;27.22;19.50;;;;;;;6.53;74.71;100787.56;2134812;83;28715;-68
2021/11/22 14:10:57;;;;;;;26.23;19.50;;;;;;;6.48;74.54;100790.78;2134059;83;32271;-69